sensor_id;sensor_type;location;lat;lon;timestamp;P1;durP1;ratioP1;P2;durP2;ratioP2
13991;SDS011;7070;53.586;9.692;2023-09-19T00:00:55;0.30;;;0.30;;
13991;SDS011;7070;53.586;9.692;2023-09-19T00:03:23;0.30;;;0.30;;
13991;SDS011;7070;53.586;9.692;2023-09-19T00:05:52;0.30;;;0.30;;
13991;SDS011;7070;53.586;9.692;2023-09-19T00:08:20;0.30;;;0.30;;
13991;SDS011;7070;53.586;9.692;2023-09-19T00:10:50;0.30;;;0.30;;
13991;SDS011;7070;53.586;9.692;2023-09-19T00:13:18;0.33;;;0.33;;
13991;SDS011;7070;53.586;9.692;2023-09-19T00:15:46;0.30;;;0.30;;
13991;SDS011;7070;53.586;9.692;2023-09-19T00:18:14;0.30;;;0.30;;
13991;SDS011;7070;53.586;9.692;2023-09-19T00:20:42;0.30;;;0.30;;
13991;SDS011;7070;53.586;9.692;2023-09-19T00:23:14;0.40;;;0.40;;
13991;SDS011;7070;53.586;9.692;2023-09-19T00:25:41;0.30;;;0.30;;
13991;SDS011;7070;53.586;9.692;2023-09-19T00:28:08;0.40;;;0.40;;
13991;SDS011;7070;53.586;9.692;2023-09-19T00:30:35;0.30;;;0.30;;
13991;SDS011;7070;53.586;9.692;2023-09-19T00:33:03;0.40;;;0.40;;
13991;SDS011;7070;53.586;9.692;2023-09-19T00:35:32;0.30;;;0.30;;
13991;SDS011;7070;53.586;9.692;2023-09-19T00:37:59;0.30;;;0.30;;
13991;SDS011;7070;53.586;9.692;2023-09-19T00:40:28;0.30;;;0.30;;
13991;SDS011;7070;53.586;9.692;2023-09-19T00:42:57;0.40;;;0.40;;
13991;SDS011;7070;53.586;9.692;2023-09-19T00:45:25;0.30;;;0.30;;
13991;SDS011;7070;53.586;9.692;2023-09-19T00:47:53;0.30;;;0.30;;
13991;SDS011;7070;53.586;9.692;2023-09-19T00:50:22;0.40;;;0.40;;
13991;SDS011;7070;53.586;9.692;2023-09-19T00:52:53;0.40;;;0.40;;
13991;SDS011;7070;53.586;9.692;2023-09-19T00:55:22;0.30;;;0.30;;
13991;SDS011;7070;53.586;9.692;2023-09-19T00:57:51;0.30;;;0.30;;
13991;SDS011;7070;53.586;9.692;2023-09-19T01:00:19;0.40;;;0.40;;
13991;SDS011;7070;53.586;9.692;2023-09-19T01:02:46;0.40;;;0.40;;
13991;SDS011;7070;53.586;9.692;2023-09-19T01:05:13;0.30;;;0.30;;
13991;SDS011;7070;53.586;9.692;2023-09-19T01:07:41;0.40;;;0.40;;
13991;SDS011;7070;53.586;9.692;2023-09-19T01:10:10;0.30;;;0.30;;
13991;SDS011;7070;53.586;9.692;2023-09-19T01:12:43;0.40;;;0.40;;
13991;SDS011;7070;53.586;9.692;2023-09-19T01:15:17;0.40;;;0.40;;
13991;SDS011;7070;53.586;9.692;2023-09-19T01:17:51;0.30;;;0.30;;
13991;SDS011;7070;53.586;9.692;2023-09-19T01:20:27;0.30;;;0.30;;
13991;SDS011;7070;53.586;9.692;2023-09-19T01:23:06;0.30;;;0.30;;
13991;SDS011;7070;53.586;9.692;2023-09-19T01:25:46;0.30;;;0.30;;
13991;SDS011;7070;53.586;9.692;2023-09-19T01:28:31;0.40;;;0.40;;
13991;SDS011;7070;53.586;9.692;2023-09-19T01:31:06;0.40;;;0.40;;
13991;SDS011;7070;53.586;9.692;2023-09-19T01:33:56;0.40;;;0.40;;
13991;SDS011;7070;53.586;9.692;2023-09-19T01:36:25;0.30;;;0.30;;
13991;SDS011;7070;53.586;9.692;2023-09-19T01:38:54;0.40;;;0.40;;
13991;SDS011;7070;53.586;9.692;2023-09-19T01:41:24;0.40;;;0.40;;
13991;SDS011;7070;53.586;9.692;2023-09-19T01:43:56;0.40;;;0.40;;
13991;SDS011;7070;53.586;9.692;2023-09-19T01:46:30;0.30;;;0.30;;
13991;SDS011;7070;53.586;9.692;2023-09-19T01:49:04;0.30;;;0.30;;
13991;SDS011;7070;53.586;9.692;2023-09-19T01:51:42;0.30;;;0.30;;
13991;SDS011;7070;53.586;9.692;2023-09-19T01:54:16;0.40;;;0.40;;
13991;SDS011;7070;53.586;9.692;2023-09-19T01:56:52;0.40;;;0.40;;
13991;SDS011;7070;53.586;9.692;2023-09-19T01:59:28;0.40;;;0.40;;
13991;SDS011;7070;53.586;9.692;2023-09-19T02:02:03;0.40;;;0.40;;
13991;SDS011;7070;53.586;9.692;2023-09-19T02:04:31;0.40;;;0.40;;
13991;SDS011;7070;53.586;9.692;2023-09-19T02:06:59;0.30;;;0.30;;
13991;SDS011;7070;53.586;9.692;2023-09-19T02:09:27;0.33;;;0.33;;
13991;SDS011;7070;53.586;9.692;2023-09-19T02:11:54;0.37;;;0.37;;
13991;SDS011;7070;53.586;9.692;2023-09-19T02:14:22;0.33;;;0.33;;
13991;SDS011;7070;53.586;9.692;2023-09-19T02:16:49;0.40;;;0.40;;
13991;SDS011;7070;53.586;9.692;2023-09-19T02:19:17;0.40;;;0.40;;
13991;SDS011;7070;53.586;9.692;2023-09-19T02:21:46;0.33;;;0.33;;
13991;SDS011;7070;53.586;9.692;2023-09-19T02:24:15;0.40;;;0.40;;
13991;SDS011;7070;53.586;9.692;2023-09-19T02:26:42;0.47;;;0.47;;
13991;SDS011;7070;53.586;9.692;2023-09-19T02:29:09;0.40;;;0.40;;
13991;SDS011;7070;53.586;9.692;2023-09-19T02:31:38;0.40;;;0.40;;
13991;SDS011;7070;53.586;9.692;2023-09-19T02:34:05;0.40;;;0.40;;
13991;SDS011;7070;53.586;9.692;2023-09-19T02:36:52;0.40;;;0.40;;
13991;SDS011;7070;53.586;9.692;2023-09-19T02:39:20;0.40;;;0.40;;
13991;SDS011;7070;53.586;9.692;2023-09-19T02:41:48;0.40;;;0.40;;
13991;SDS011;7070;53.586;9.692;2023-09-19T02:44:16;0.40;;;0.40;;
13991;SDS011;7070;53.586;9.692;2023-09-19T02:46:45;0.40;;;0.40;;
13991;SDS011;7070;53.586;9.692;2023-09-19T02:49:12;0.30;;;0.30;;
13991;SDS011;7070;53.586;9.692;2023-09-19T02:51:41;0.33;;;0.33;;
13991;SDS011;7070;53.586;9.692;2023-09-19T02:54:08;0.30;;;0.30;;
13991;SDS011;7070;53.586;9.692;2023-09-19T02:56:36;0.40;;;0.40;;
13991;SDS011;7070;53.586;9.692;2023-09-19T02:59:03;0.40;;;0.40;;
13991;SDS011;7070;53.586;9.692;2023-09-19T03:01:31;0.33;;;0.33;;
13991;SDS011;7070;53.586;9.692;2023-09-19T03:03:58;0.33;;;0.33;;
13991;SDS011;7070;53.586;9.692;2023-09-19T03:06:25;0.37;;;0.37;;
13991;SDS011;7070;53.586;9.692;2023-09-19T03:08:54;0.40;;;0.40;;
13991;SDS011;7070;53.586;9.692;2023-09-19T03:11:25;0.33;;;0.33;;
13991;SDS011;7070;53.586;9.692;2023-09-19T03:14:05;0.37;;;0.37;;
13991;SDS011;7070;53.586;9.692;2023-09-19T03:16:32;0.30;;;0.30;;
13991;SDS011;7070;53.586;9.692;2023-09-19T03:18:59;0.40;;;0.40;;
13991;SDS011;7070;53.586;9.692;2023-09-19T03:21:25;0.30;;;0.30;;
13991;SDS011;7070;53.586;9.692;2023-09-19T03:23:56;0.40;;;0.40;;
13991;SDS011;7070;53.586;9.692;2023-09-19T03:26:23;0.30;;;0.30;;
13991;SDS011;7070;53.586;9.692;2023-09-19T03:28:51;0.30;;;0.30;;
13991;SDS011;7070;53.586;9.692;2023-09-19T03:31:19;0.37;;;0.37;;
13991;SDS011;7070;53.586;9.692;2023-09-19T03:33:46;0.37;;;0.37;;
13991;SDS011;7070;53.586;9.692;2023-09-19T03:36:13;0.40;;;0.40;;
13991;SDS011;7070;53.586;9.692;2023-09-19T03:38:40;0.40;;;0.40;;
13991;SDS011;7070;53.586;9.692;2023-09-19T03:41:08;0.30;;;0.30;;
13991;SDS011;7070;53.586;9.692;2023-09-19T03:43:39;0.30;;;0.30;;
13991;SDS011;7070;53.586;9.692;2023-09-19T03:46:06;0.40;;;0.40;;
13991;SDS011;7070;53.586;9.692;2023-09-19T03:48:32;0.30;;;0.30;;
13991;SDS011;7070;53.586;9.692;2023-09-19T03:50:59;0.37;;;0.37;;
13991;SDS011;7070;53.586;9.692;2023-09-19T03:53:27;0.30;;;0.30;;
13991;SDS011;7070;53.586;9.692;2023-09-19T03:55:54;0.40;;;0.40;;
13991;SDS011;7070;53.586;9.692;2023-09-19T03:58:23;0.30;;;0.30;;
13991;SDS011;7070;53.586;9.692;2023-09-19T04:00:50;0.40;;;0.40;;
13991;SDS011;7070;53.586;9.692;2023-09-19T04:03:20;0.37;;;0.37;;
13991;SDS011;7070;53.586;9.692;2023-09-19T04:05:47;0.40;;;0.40;;
13991;SDS011;7070;53.586;9.692;2023-09-19T04:08:14;0.30;;;0.30;;
13991;SDS011;7070;53.586;9.692;2023-09-19T04:10:41;0.40;;;0.40;;
13991;SDS011;7070;53.586;9.692;2023-09-19T04:13:09;0.33;;;0.33;;
13991;SDS011;7070;53.586;9.692;2023-09-19T04:15:38;0.37;;;0.37;;
13991;SDS011;7070;53.586;9.692;2023-09-19T04:18:05;0.30;;;0.30;;
13991;SDS011;7070;53.586;9.692;2023-09-19T04:20:32;0.30;;;0.30;;
13991;SDS011;7070;53.586;9.692;2023-09-19T04:22:59;0.40;;;0.40;;
13991;SDS011;7070;53.586;9.692;2023-09-19T04:25:26;0.30;;;0.30;;
13991;SDS011;7070;53.586;9.692;2023-09-19T04:27:52;0.40;;;0.40;;
13991;SDS011;7070;53.586;9.692;2023-09-19T04:30:19;0.40;;;0.40;;
13991;SDS011;7070;53.586;9.692;2023-09-19T04:32:48;0.30;;;0.30;;
13991;SDS011;7070;53.586;9.692;2023-09-19T04:35:16;0.40;;;0.40;;
13991;SDS011;7070;53.586;9.692;2023-09-19T04:37:43;0.40;;;0.40;;
13991;SDS011;7070;53.586;9.692;2023-09-19T04:40:10;0.50;;;0.50;;
13991;SDS011;7070;53.586;9.692;2023-09-19T04:42:39;0.40;;;0.40;;
13991;SDS011;7070;53.586;9.692;2023-09-19T04:45:07;0.40;;;0.40;;
13991;SDS011;7070;53.586;9.692;2023-09-19T04:47:35;0.40;;;0.40;;
13991;SDS011;7070;53.586;9.692;2023-09-19T04:50:05;0.40;;;0.40;;
13991;SDS011;7070;53.586;9.692;2023-09-19T04:52:36;0.40;;;0.40;;
13991;SDS011;7070;53.586;9.692;2023-09-19T04:55:05;0.40;;;0.40;;
13991;SDS011;7070;53.586;9.692;2023-09-19T04:57:32;0.40;;;0.40;;
13991;SDS011;7070;53.586;9.692;2023-09-19T04:59:59;0.40;;;0.40;;
13991;SDS011;7070;53.586;9.692;2023-09-19T05:02:28;0.50;;;0.50;;
13991;SDS011;7070;53.586;9.692;2023-09-19T05:04:56;0.40;;;0.40;;
13991;SDS011;7070;53.586;9.692;2023-09-19T05:07:26;0.40;;;0.40;;
13991;SDS011;7070;53.586;9.692;2023-09-19T05:09:53;0.30;;;0.30;;
13991;SDS011;7070;53.586;9.692;2023-09-19T05:12:20;0.40;;;0.40;;
13991;SDS011;7070;53.586;9.692;2023-09-19T05:14:47;0.40;;;0.40;;
13991;SDS011;7070;53.586;9.692;2023-09-19T05:17:14;0.40;;;0.40;;
13991;SDS011;7070;53.586;9.692;2023-09-19T05:19:42;0.30;;;0.30;;
13991;SDS011;7070;53.586;9.692;2023-09-19T05:22:09;0.43;;;0.43;;
13991;SDS011;7070;53.586;9.692;2023-09-19T05:24:37;0.40;;;0.40;;
13991;SDS011;7070;53.586;9.692;2023-09-19T05:27:04;0.40;;;0.40;;
13991;SDS011;7070;53.586;9.692;2023-09-19T05:29:32;0.30;;;0.30;;
13991;SDS011;7070;53.586;9.692;2023-09-19T05:31:59;0.40;;;0.40;;
13991;SDS011;7070;53.586;9.692;2023-09-19T05:34:26;0.40;;;0.40;;
13991;SDS011;7070;53.586;9.692;2023-09-19T05:36:55;0.40;;;0.40;;
13991;SDS011;7070;53.586;9.692;2023-09-19T05:39:22;0.40;;;0.40;;
13991;SDS011;7070;53.586;9.692;2023-09-19T05:41:50;0.40;;;0.40;;
13991;SDS011;7070;53.586;9.692;2023-09-19T05:44:17;0.40;;;0.40;;
13991;SDS011;7070;53.586;9.692;2023-09-19T05:46:44;0.40;;;0.40;;
13991;SDS011;7070;53.586;9.692;2023-09-19T05:49:13;0.40;;;0.40;;
13991;SDS011;7070;53.586;9.692;2023-09-19T05:51:40;0.40;;;0.40;;
13991;SDS011;7070;53.586;9.692;2023-09-19T05:54:07;0.40;;;0.40;;
13991;SDS011;7070;53.586;9.692;2023-09-19T05:56:36;0.40;;;0.40;;
13991;SDS011;7070;53.586;9.692;2023-09-19T05:59:04;0.40;;;0.40;;
13991;SDS011;7070;53.586;9.692;2023-09-19T06:01:31;0.40;;;0.40;;
13991;SDS011;7070;53.586;9.692;2023-09-19T06:03:59;0.40;;;0.40;;
13991;SDS011;7070;53.586;9.692;2023-09-19T06:06:26;0.40;;;0.40;;
13991;SDS011;7070;53.586;9.692;2023-09-19T06:08:53;0.30;;;0.30;;
13991;SDS011;7070;53.586;9.692;2023-09-19T06:11:20;0.40;;;0.40;;
13991;SDS011;7070;53.586;9.692;2023-09-19T06:13:48;0.40;;;0.40;;
13991;SDS011;7070;53.586;9.692;2023-09-19T06:16:17;0.40;;;0.40;;
13991;SDS011;7070;53.586;9.692;2023-09-19T06:18:44;0.40;;;0.40;;
13991;SDS011;7070;53.586;9.692;2023-09-19T06:21:11;0.40;;;0.40;;
13991;SDS011;7070;53.586;9.692;2023-09-19T06:23:38;0.40;;;0.40;;
13991;SDS011;7070;53.586;9.692;2023-09-19T06:26:06;0.30;;;0.30;;
13991;SDS011;7070;53.586;9.692;2023-09-19T06:28:33;0.40;;;0.40;;
13991;SDS011;7070;53.586;9.692;2023-09-19T06:31:01;0.40;;;0.40;;
13991;SDS011;7070;53.586;9.692;2023-09-19T06:33:34;0.40;;;0.40;;
13991;SDS011;7070;53.586;9.692;2023-09-19T06:36:03;0.40;;;0.40;;
13991;SDS011;7070;53.586;9.692;2023-09-19T06:38:30;0.30;;;0.30;;
13991;SDS011;7070;53.586;9.692;2023-09-19T06:40:59;0.40;;;0.40;;
13991;SDS011;7070;53.586;9.692;2023-09-19T06:43:29;0.40;;;0.40;;
13991;SDS011;7070;53.586;9.692;2023-09-19T06:45:57;0.40;;;0.40;;
13991;SDS011;7070;53.586;9.692;2023-09-19T06:48:25;0.40;;;0.40;;
13991;SDS011;7070;53.586;9.692;2023-09-19T06:50:55;0.30;;;0.30;;
13991;SDS011;7070;53.586;9.692;2023-09-19T06:53:23;0.40;;;0.40;;
13991;SDS011;7070;53.586;9.692;2023-09-19T06:55:49;0.40;;;0.40;;
13991;SDS011;7070;53.586;9.692;2023-09-19T06:58:16;0.40;;;0.40;;
13991;SDS011;7070;53.586;9.692;2023-09-19T07:00:44;0.40;;;0.40;;
13991;SDS011;7070;53.586;9.692;2023-09-19T07:03:11;0.40;;;0.40;;
13991;SDS011;7070;53.586;9.692;2023-09-19T07:05:41;0.40;;;0.40;;
13991;SDS011;7070;53.586;9.692;2023-09-19T07:08:10;0.30;;;0.30;;
13991;SDS011;7070;53.586;9.692;2023-09-19T07:10:37;0.30;;;0.30;;
13991;SDS011;7070;53.586;9.692;2023-09-19T07:13:06;0.30;;;0.30;;
13991;SDS011;7070;53.586;9.692;2023-09-19T07:15:34;0.30;;;0.30;;
13991;SDS011;7070;53.586;9.692;2023-09-19T07:18:04;0.30;;;0.30;;
13991;SDS011;7070;53.586;9.692;2023-09-19T07:20:32;0.40;;;0.40;;
13991;SDS011;7070;53.586;9.692;2023-09-19T07:22:59;0.30;;;0.30;;
13991;SDS011;7070;53.586;9.692;2023-09-19T07:25:28;0.40;;;0.40;;
13991;SDS011;7070;53.586;9.692;2023-09-19T07:27:55;0.30;;;0.30;;
13991;SDS011;7070;53.586;9.692;2023-09-19T07:30:25;0.40;;;0.40;;
13991;SDS011;7070;53.586;9.692;2023-09-19T07:32:52;0.40;;;0.40;;
13991;SDS011;7070;53.586;9.692;2023-09-19T07:35:19;0.30;;;0.30;;
13991;SDS011;7070;53.586;9.692;2023-09-19T07:37:46;0.40;;;0.40;;
13991;SDS011;7070;53.586;9.692;2023-09-19T07:40:14;0.30;;;0.30;;
13991;SDS011;7070;53.586;9.692;2023-09-19T07:42:43;0.30;;;0.30;;
13991;SDS011;7070;53.586;9.692;2023-09-19T07:45:12;0.30;;;0.30;;
13991;SDS011;7070;53.586;9.692;2023-09-19T07:47:43;0.30;;;0.30;;
13991;SDS011;7070;53.586;9.692;2023-09-19T07:50:10;0.30;;;0.30;;
13991;SDS011;7070;53.586;9.692;2023-09-19T07:52:37;0.40;;;0.40;;
13991;SDS011;7070;53.586;9.692;2023-09-19T07:55:05;0.30;;;0.30;;
13991;SDS011;7070;53.586;9.692;2023-09-19T07:57:36;0.30;;;0.30;;
13991;SDS011;7070;53.586;9.692;2023-09-19T08:00:05;0.30;;;0.30;;
13991;SDS011;7070;53.586;9.692;2023-09-19T08:02:34;0.30;;;0.30;;
13991;SDS011;7070;53.586;9.692;2023-09-19T08:05:03;0.40;;;0.40;;
13991;SDS011;7070;53.586;9.692;2023-09-19T08:07:34;0.30;;;0.30;;
13991;SDS011;7070;53.586;9.692;2023-09-19T08:10:02;0.30;;;0.30;;
13991;SDS011;7070;53.586;9.692;2023-09-19T08:12:29;0.30;;;0.30;;
13991;SDS011;7070;53.586;9.692;2023-09-19T08:14:57;0.30;;;0.30;;
13991;SDS011;7070;53.586;9.692;2023-09-19T08:17:25;0.30;;;0.30;;
13991;SDS011;7070;53.586;9.692;2023-09-19T08:19:52;0.40;;;0.40;;
13991;SDS011;7070;53.586;9.692;2023-09-19T08:22:19;0.40;;;0.40;;
13991;SDS011;7070;53.586;9.692;2023-09-19T08:24:47;0.30;;;0.30;;
13991;SDS011;7070;53.586;9.692;2023-09-19T08:27:14;0.30;;;0.30;;
13991;SDS011;7070;53.586;9.692;2023-09-19T08:29:44;0.40;;;0.40;;
13991;SDS011;7070;53.586;9.692;2023-09-19T08:32:11;0.30;;;0.30;;
13991;SDS011;7070;53.586;9.692;2023-09-19T08:34:39;0.30;;;0.30;;
13991;SDS011;7070;53.586;9.692;2023-09-19T08:37:06;0.40;;;0.40;;
13991;SDS011;7070;53.586;9.692;2023-09-19T08:39:34;0.33;;;0.33;;
13991;SDS011;7070;53.586;9.692;2023-09-19T08:42:02;0.30;;;0.30;;
13991;SDS011;7070;53.586;9.692;2023-09-19T08:44:29;0.30;;;0.30;;
13991;SDS011;7070;53.586;9.692;2023-09-19T08:47:05;0.40;;;0.40;;
13991;SDS011;7070;53.586;9.692;2023-09-19T08:49:36;0.30;;;0.30;;
13991;SDS011;7070;53.586;9.692;2023-09-19T08:52:16;0.30;;;0.30;;
13991;SDS011;7070;53.586;9.692;2023-09-19T08:54:48;0.30;;;0.30;;
13991;SDS011;7070;53.586;9.692;2023-09-19T08:57:19;0.40;;;0.40;;
13991;SDS011;7070;53.586;9.692;2023-09-19T08:59:47;0.37;;;0.37;;
13991;SDS011;7070;53.586;9.692;2023-09-19T09:02:15;0.20;;;0.20;;
13991;SDS011;7070;53.586;9.692;2023-09-19T09:04:45;0.30;;;0.30;;
13991;SDS011;7070;53.586;9.692;2023-09-19T09:07:13;0.30;;;0.30;;
13991;SDS011;7070;53.586;9.692;2023-09-19T09:09:41;0.30;;;0.30;;
13991;SDS011;7070;53.586;9.692;2023-09-19T09:12:09;0.40;;;0.40;;
13991;SDS011;7070;53.586;9.692;2023-09-19T09:14:38;0.30;;;0.30;;
13991;SDS011;7070;53.586;9.692;2023-09-19T09:17:06;0.37;;;0.37;;
13991;SDS011;7070;53.586;9.692;2023-09-19T09:19:33;0.30;;;0.30;;
13991;SDS011;7070;53.586;9.692;2023-09-19T09:22:08;0.30;;;0.30;;
13991;SDS011;7070;53.586;9.692;2023-09-19T09:24:36;0.30;;;0.30;;
13991;SDS011;7070;53.586;9.692;2023-09-19T09:27:05;0.20;;;0.20;;
13991;SDS011;7070;53.586;9.692;2023-09-19T09:29:40;0.30;;;0.30;;
13991;SDS011;7070;53.586;9.692;2023-09-19T09:32:18;0.30;;;0.30;;
13991;SDS011;7070;53.586;9.692;2023-09-19T09:34:46;0.30;;;0.30;;
13991;SDS011;7070;53.586;9.692;2023-09-19T09:37:17;0.30;;;0.30;;
13991;SDS011;7070;53.586;9.692;2023-09-19T09:39:49;0.30;;;0.30;;
13991;SDS011;7070;53.586;9.692;2023-09-19T09:42:29;0.30;;;0.30;;
13991;SDS011;7070;53.586;9.692;2023-09-19T09:45:17;0.33;;;0.33;;
13991;SDS011;7070;53.586;9.692;2023-09-19T09:47:53;0.30;;;0.30;;
13991;SDS011;7070;53.586;9.692;2023-09-19T09:50:27;0.23;;;0.23;;
13991;SDS011;7070;53.586;9.692;2023-09-19T09:53:03;0.27;;;0.27;;
13991;SDS011;7070;53.586;9.692;2023-09-19T09:55:56;0.30;;;0.30;;
13991;SDS011;7070;53.586;9.692;2023-09-19T09:58:24;0.30;;;0.30;;
13991;SDS011;7070;53.586;9.692;2023-09-19T10:00:54;0.27;;;0.27;;
13991;SDS011;7070;53.586;9.692;2023-09-19T10:03:30;0.30;;;0.30;;
13991;SDS011;7070;53.586;9.692;2023-09-19T10:05:58;0.20;;;0.20;;
13991;SDS011;7070;53.586;9.692;2023-09-19T10:08:29;0.20;;;0.20;;
13991;SDS011;7070;53.586;9.692;2023-09-19T10:10:56;0.30;;;0.30;;
13991;SDS011;7070;53.586;9.692;2023-09-19T10:13:30;0.30;;;0.30;;
13991;SDS011;7070;53.586;9.692;2023-09-19T10:16:00;0.30;;;0.30;;
13991;SDS011;7070;53.586;9.692;2023-09-19T10:18:36;0.30;;;0.30;;
13991;SDS011;7070;53.586;9.692;2023-09-19T10:21:04;0.30;;;0.30;;
13991;SDS011;7070;53.586;9.692;2023-09-19T10:23:35;0.23;;;0.23;;
13991;SDS011;7070;53.586;9.692;2023-09-19T10:26:04;0.30;;;0.30;;
13991;SDS011;7070;53.586;9.692;2023-09-19T10:28:34;0.23;;;0.23;;
13991;SDS011;7070;53.586;9.692;2023-09-19T10:31:03;0.20;;;0.20;;
13991;SDS011;7070;53.586;9.692;2023-09-19T10:33:35;0.23;;;0.23;;
13991;SDS011;7070;53.586;9.692;2023-09-19T10:36:03;0.20;;;0.20;;
13991;SDS011;7070;53.586;9.692;2023-09-19T10:38:31;0.27;;;0.27;;
13991;SDS011;7070;53.586;9.692;2023-09-19T10:41:01;0.20;;;0.20;;
13991;SDS011;7070;53.586;9.692;2023-09-19T10:43:30;0.20;;;0.20;;
13991;SDS011;7070;53.586;9.692;2023-09-19T10:46:00;0.27;;;0.27;;
13991;SDS011;7070;53.586;9.692;2023-09-19T10:48:29;0.20;;;0.20;;
13991;SDS011;7070;53.586;9.692;2023-09-19T10:50:58;0.20;;;0.20;;
13991;SDS011;7070;53.586;9.692;2023-09-19T10:56:18;0.20;;;0.20;;
13991;SDS011;7070;53.586;9.692;2023-09-19T10:58:49;0.20;;;0.20;;
13991;SDS011;7070;53.586;9.692;2023-09-19T11:01:16;0.30;;;0.30;;
13991;SDS011;7070;53.586;9.692;2023-09-19T11:03:43;0.20;;;0.20;;
13991;SDS011;7070;53.586;9.692;2023-09-19T11:06:14;0.30;;;0.30;;
13991;SDS011;7070;53.586;9.692;2023-09-19T11:08:58;0.20;;;0.20;;
13991;SDS011;7070;53.586;9.692;2023-09-19T11:11:40;0.30;;;0.30;;
13991;SDS011;7070;53.586;9.692;2023-09-19T11:14:14;0.20;;;0.20;;
13991;SDS011;7070;53.586;9.692;2023-09-19T11:23:19;0.20;;;0.20;;
13991;SDS011;7070;53.586;9.692;2023-09-19T11:25:53;0.20;;;0.20;;
13991;SDS011;7070;53.586;9.692;2023-09-19T11:28:33;0.20;;;0.20;;
13991;SDS011;7070;53.586;9.692;2023-09-19T11:34:42;0.20;;;0.20;;
13991;SDS011;7070;53.586;9.692;2023-09-19T11:40:27;0.20;;;0.20;;
13991;SDS011;7070;53.586;9.692;2023-09-19T11:42:57;0.20;;;0.20;;
13991;SDS011;7070;53.586;9.692;2023-09-19T11:48:32;0.20;;;0.20;;
13991;SDS011;7070;53.586;9.692;2023-09-19T11:51:08;0.20;;;0.20;;
13991;SDS011;7070;53.586;9.692;2023-09-19T11:53:47;0.30;;;0.30;;
13991;SDS011;7070;53.586;9.692;2023-09-19T11:56:15;0.20;;;0.20;;
13991;SDS011;7070;53.586;9.692;2023-09-19T11:58:45;0.30;;;0.30;;
13991;SDS011;7070;53.586;9.692;2023-09-19T12:01:14;0.20;;;0.20;;
13991;SDS011;7070;53.586;9.692;2023-09-19T12:03:47;0.20;;;0.20;;
13991;SDS011;7070;53.586;9.692;2023-09-19T12:06:19;0.23;;;0.23;;
13991;SDS011;7070;53.586;9.692;2023-09-19T12:08:47;0.20;;;0.20;;
13991;SDS011;7070;53.586;9.692;2023-09-19T12:11:16;0.20;;;0.20;;
13991;SDS011;7070;53.586;9.692;2023-09-19T12:13:47;0.20;;;0.20;;
13991;SDS011;7070;53.586;9.692;2023-09-19T12:16:15;0.30;;;0.30;;
13991;SDS011;7070;53.586;9.692;2023-09-19T12:18:43;0.30;;;0.30;;
13991;SDS011;7070;53.586;9.692;2023-09-19T12:21:24;0.30;;;0.30;;
13991;SDS011;7070;53.586;9.692;2023-09-19T12:23:57;0.20;;;0.20;;
13991;SDS011;7070;53.586;9.692;2023-09-19T12:26:24;0.23;;;0.23;;
13991;SDS011;7070;53.586;9.692;2023-09-19T12:28:55;0.30;;;0.30;;
13991;SDS011;7070;53.586;9.692;2023-09-19T12:31:22;0.20;;;0.20;;
13991;SDS011;7070;53.586;9.692;2023-09-19T12:33:53;0.20;;;0.20;;
13991;SDS011;7070;53.586;9.692;2023-09-19T12:36:21;0.30;;;0.30;;
13991;SDS011;7070;53.586;9.692;2023-09-19T12:38:54;0.20;;;0.20;;
13991;SDS011;7070;53.586;9.692;2023-09-19T12:41:21;0.20;;;0.20;;
13991;SDS011;7070;53.586;9.692;2023-09-19T12:43:48;0.20;;;0.20;;
13991;SDS011;7070;53.586;9.692;2023-09-19T12:46:21;0.20;;;0.20;;
13991;SDS011;7070;53.586;9.692;2023-09-19T12:48:51;0.20;;;0.20;;
13991;SDS011;7070;53.586;9.692;2023-09-19T12:51:43;0.20;;;0.20;;
13991;SDS011;7070;53.586;9.692;2023-09-19T12:54:11;0.20;;;0.20;;
13991;SDS011;7070;53.586;9.692;2023-09-19T12:56:40;0.30;;;0.30;;
13991;SDS011;7070;53.586;9.692;2023-09-19T12:59:09;0.20;;;0.20;;
13991;SDS011;7070;53.586;9.692;2023-09-19T13:01:39;0.20;;;0.20;;
13991;SDS011;7070;53.586;9.692;2023-09-19T13:04:15;0.20;;;0.20;;
13991;SDS011;7070;53.586;9.692;2023-09-19T13:06:51;0.20;;;0.20;;
13991;SDS011;7070;53.586;9.692;2023-09-19T13:09:20;0.20;;;0.20;;
13991;SDS011;7070;53.586;9.692;2023-09-19T13:11:49;0.20;;;0.20;;
13991;SDS011;7070;53.586;9.692;2023-09-19T13:14:19;0.20;;;0.20;;
13991;SDS011;7070;53.586;9.692;2023-09-19T13:16:59;0.20;;;0.20;;
13991;SDS011;7070;53.586;9.692;2023-09-19T13:19:36;0.23;;;0.23;;
13991;SDS011;7070;53.586;9.692;2023-09-19T13:22:04;0.20;;;0.20;;
13991;SDS011;7070;53.586;9.692;2023-09-19T13:24:33;0.20;;;0.20;;
13991;SDS011;7070;53.586;9.692;2023-09-19T13:27:05;0.20;;;0.20;;
13991;SDS011;7070;53.586;9.692;2023-09-19T13:29:32;0.20;;;0.20;;
13991;SDS011;7070;53.586;9.692;2023-09-19T13:32:00;0.20;;;0.20;;
13991;SDS011;7070;53.586;9.692;2023-09-19T13:34:29;0.20;;;0.20;;
13991;SDS011;7070;53.586;9.692;2023-09-19T13:36:56;0.20;;;0.20;;
13991;SDS011;7070;53.586;9.692;2023-09-19T13:39:24;0.23;;;0.23;;
13991;SDS011;7070;53.586;9.692;2023-09-19T13:41:54;0.20;;;0.20;;
13991;SDS011;7070;53.586;9.692;2023-09-19T13:44:21;0.20;;;0.20;;
13991;SDS011;7070;53.586;9.692;2023-09-19T13:46:48;0.20;;;0.20;;
13991;SDS011;7070;53.586;9.692;2023-09-19T13:49:17;0.30;;;0.30;;
13991;SDS011;7070;53.586;9.692;2023-09-19T13:51:44;0.20;;;0.20;;
13991;SDS011;7070;53.586;9.692;2023-09-19T13:54:11;0.20;;;0.20;;
13991;SDS011;7070;53.586;9.692;2023-09-19T13:56:39;0.20;;;0.20;;
13991;SDS011;7070;53.586;9.692;2023-09-19T13:59:06;0.20;;;0.20;;
13991;SDS011;7070;53.586;9.692;2023-09-19T14:01:34;0.20;;;0.20;;
13991;SDS011;7070;53.586;9.692;2023-09-19T14:04:00;0.27;;;0.27;;
13991;SDS011;7070;53.586;9.692;2023-09-19T14:06:29;0.13;;;0.13;;
13991;SDS011;7070;53.586;9.692;2023-09-19T14:08:55;0.13;;;0.13;;
13991;SDS011;7070;53.586;9.692;2023-09-19T14:11:22;0.20;;;0.20;;
13991;SDS011;7070;53.586;9.692;2023-09-19T14:13:49;0.20;;;0.20;;
13991;SDS011;7070;53.586;9.692;2023-09-19T14:16:17;0.20;;;0.20;;
13991;SDS011;7070;53.586;9.692;2023-09-19T14:18:44;0.20;;;0.20;;
13991;SDS011;7070;53.586;9.692;2023-09-19T14:21:12;0.20;;;0.20;;
13991;SDS011;7070;53.586;9.692;2023-09-19T14:23:41;0.23;;;0.23;;
13991;SDS011;7070;53.586;9.692;2023-09-19T14:26:09;0.20;;;0.20;;
13991;SDS011;7070;53.586;9.692;2023-09-19T14:28:35;0.20;;;0.20;;
13991;SDS011;7070;53.586;9.692;2023-09-19T14:31:04;0.20;;;0.20;;
13991;SDS011;7070;53.586;9.692;2023-09-19T14:33:32;0.20;;;0.20;;
13991;SDS011;7070;53.586;9.692;2023-09-19T14:36:01;0.20;;;0.20;;
13991;SDS011;7070;53.586;9.692;2023-09-19T14:38:30;0.30;;;0.30;;
13991;SDS011;7070;53.586;9.692;2023-09-19T14:41:00;0.20;;;0.20;;
13991;SDS011;7070;53.586;9.692;2023-09-19T14:43:27;0.30;;;0.30;;
13991;SDS011;7070;53.586;9.692;2023-09-19T14:45:55;0.20;;;0.20;;
13991;SDS011;7070;53.586;9.692;2023-09-19T14:48:23;0.20;;;0.20;;
13991;SDS011;7070;53.586;9.692;2023-09-19T14:50:50;0.20;;;0.20;;
13991;SDS011;7070;53.586;9.692;2023-09-19T14:53:17;0.20;;;0.20;;
13991;SDS011;7070;53.586;9.692;2023-09-19T14:55:44;0.20;;;0.20;;
13991;SDS011;7070;53.586;9.692;2023-09-19T14:58:14;0.20;;;0.20;;
13991;SDS011;7070;53.586;9.692;2023-09-19T15:00:41;0.20;;;0.20;;
13991;SDS011;7070;53.586;9.692;2023-09-19T15:03:10;0.10;;;0.10;;
13991;SDS011;7070;53.586;9.692;2023-09-19T15:05:38;0.20;;;0.20;;
13991;SDS011;7070;53.586;9.692;2023-09-19T15:08:05;0.30;;;0.30;;
13991;SDS011;7070;53.586;9.692;2023-09-19T15:10:32;0.20;;;0.20;;
13991;SDS011;7070;53.586;9.692;2023-09-19T15:12:59;0.20;;;0.20;;
13991;SDS011;7070;53.586;9.692;2023-09-19T15:15:27;0.20;;;0.20;;
13991;SDS011;7070;53.586;9.692;2023-09-19T15:17:55;0.27;;;0.27;;
13991;SDS011;7070;53.586;9.692;2023-09-19T15:20:22;0.20;;;0.20;;
13991;SDS011;7070;53.586;9.692;2023-09-19T15:22:50;0.30;;;0.30;;
13991;SDS011;7070;53.586;9.692;2023-09-19T15:25:16;0.20;;;0.20;;
13991;SDS011;7070;53.586;9.692;2023-09-19T15:27:43;0.30;;;0.30;;
13991;SDS011;7070;53.586;9.692;2023-09-19T15:30:10;0.20;;;0.20;;
13991;SDS011;7070;53.586;9.692;2023-09-19T15:32:41;0.20;;;0.20;;